sensor_id;sensor_type;location;lat;lon;timestamp;P1;durP1;ratioP1;P2;durP2;ratioP2
14094;SDS011;18096;48.142;16.290;2023-03-03T00:01:18;12.47;;;8.07;;
14094;SDS011;18096;48.142;16.290;2023-03-03T00:03:44;15.55;;;8.30;;
14094;SDS011;18096;48.142;16.290;2023-03-03T00:06:11;12.10;;;8.60;;
14094;SDS011;18096;48.142;16.290;2023-03-03T00:08:39;10.02;;;7.43;;
14094;SDS011;18096;48.142;16.290;2023-03-03T00:11:05;13.18;;;7.55;;
14094;SDS011;18096;48.142;16.290;2023-03-03T00:13:32;16.02;;;9.10;;
14094;SDS011;18096;48.142;16.290;2023-03-03T00:16:10;11.77;;;7.87;;
14094;SDS011;18096;48.142;16.290;2023-03-03T00:18:47;14.15;;;8.20;;
14094;SDS011;18096;48.142;16.290;2023-03-03T00:21:32;14.80;;;9.10;;
14094;SDS011;18096;48.142;16.290;2023-03-03T00:24:24;17.63;;;8.68;;
14094;SDS011;18096;48.142;16.290;2023-03-03T00:27:09;14.63;;;8.20;;
14094;SDS011;18096;48.142;16.290;2023-03-03T00:29:50;14.70;;;9.27;;
14094;SDS011;18096;48.142;16.290;2023-03-03T00:32:41;14.25;;;8.60;;
14094;SDS011;18096;48.142;16.290;2023-03-03T00:35:35;17.10;;;9.47;;
14094;SDS011;18096;48.142;16.290;2023-03-03T00:38:13;9.53;;;8.03;;
14094;SDS011;18096;48.142;16.290;2023-03-03T00:40:44;16.88;;;9.07;;
14094;SDS011;18096;48.142;16.290;2023-03-03T00:43:17;18.13;;;10.20;;
14094;SDS011;18096;48.142;16.290;2023-03-03T00:50:51;23.47;;;10.10;;
14094;SDS011;18096;48.142;16.290;2023-03-03T00:53:20;15.07;;;9.05;;
14094;SDS011;18096;48.142;16.290;2023-03-03T00:55:47;12.15;;;8.70;;
14094;SDS011;18096;48.142;16.290;2023-03-03T00:58:14;15.88;;;9.20;;
14094;SDS011;18096;48.142;16.290;2023-03-03T01:00:40;18.77;;;10.10;;
14094;SDS011;18096;48.142;16.290;2023-03-03T01:03:07;17.02;;;9.68;;
14094;SDS011;18096;48.142;16.290;2023-03-03T01:05:36;15.80;;;9.23;;
14094;SDS011;18096;48.142;16.290;2023-03-03T01:08:02;17.17;;;8.73;;
14094;SDS011;18096;48.142;16.290;2023-03-03T01:10:29;19.65;;;9.65;;
14094;SDS011;18096;48.142;16.290;2023-03-03T01:12:58;19.27;;;10.10;;
14094;SDS011;18096;48.142;16.290;2023-03-03T01:15:24;15.23;;;9.27;;
14094;SDS011;18096;48.142;16.290;2023-03-03T01:17:50;16.88;;;9.27;;
14094;SDS011;18096;48.142;16.290;2023-03-03T01:20:16;21.90;;;10.30;;
14094;SDS011;18096;48.142;16.290;2023-03-03T01:22:42;21.58;;;8.98;;
14094;SDS011;18096;48.142;16.290;2023-03-03T01:25:08;13.90;;;9.40;;
14094;SDS011;18096;48.142;16.290;2023-03-03T01:27:34;14.80;;;9.55;;
14094;SDS011;18096;48.142;16.290;2023-03-03T01:30:00;13.90;;;9.30;;
14094;SDS011;18096;48.142;16.290;2023-03-03T01:32:28;12.88;;;9.63;;
14094;SDS011;18096;48.142;16.290;2023-03-03T01:34:53;15.40;;;9.18;;
14094;SDS011;18096;48.142;16.290;2023-03-03T01:37:19;16.60;;;9.10;;
14094;SDS011;18096;48.142;16.290;2023-03-03T01:39:52;16.00;;;10.10;;
14094;SDS011;18096;48.142;16.290;2023-03-03T01:42:18;21.40;;;10.48;;
14094;SDS011;18096;48.142;16.290;2023-03-03T01:44:45;14.05;;;9.57;;
14094;SDS011;18096;48.142;16.290;2023-03-03T01:47:20;17.15;;;9.00;;
14094;SDS011;18096;48.142;16.290;2023-03-03T01:49:49;25.95;;;9.10;;
14094;SDS011;18096;48.142;16.290;2023-03-03T01:52:23;13.82;;;9.95;;
14094;SDS011;18096;48.142;16.290;2023-03-03T01:54:56;11.07;;;8.20;;
14094;SDS011;18096;48.142;16.290;2023-03-03T01:57:32;16.50;;;9.20;;
14094;SDS011;18096;48.142;16.290;2023-03-03T02:00:04;16.98;;;9.88;;
14094;SDS011;18096;48.142;16.290;2023-03-03T02:02:31;19.45;;;9.77;;
14094;SDS011;18096;48.142;16.290;2023-03-03T02:04:58;12.68;;;8.90;;
14094;SDS011;18096;48.142;16.290;2023-03-03T02:07:24;11.87;;;8.70;;
14094;SDS011;18096;48.142;16.290;2023-03-03T02:09:57;17.90;;;9.70;;
14094;SDS011;18096;48.142;16.290;2023-03-03T02:15:22;12.65;;;8.60;;
14094;SDS011;18096;48.142;16.290;2023-03-03T02:17:54;22.38;;;9.93;;
14094;SDS011;18096;48.142;16.290;2023-03-03T02:23:07;13.13;;;9.30;;
14094;SDS011;18096;48.142;16.290;2023-03-03T02:28:18;15.20;;;9.80;;
14094;SDS011;18096;48.142;16.290;2023-03-03T02:30:43;23.43;;;9.47;;
14094;SDS011;18096;48.142;16.290;2023-03-03T02:33:09;17.73;;;9.83;;
14094;SDS011;18096;48.142;16.290;2023-03-03T02:35:35;19.73;;;10.23;;
14094;SDS011;18096;48.142;16.290;2023-03-03T02:40:35;17.98;;;10.13;;
14094;SDS011;18096;48.142;16.290;2023-03-03T02:43:06;19.17;;;9.57;;
14094;SDS011;18096;48.142;16.290;2023-03-03T02:45:34;18.17;;;10.47;;
14094;SDS011;18096;48.142;16.290;2023-03-03T02:48:06;17.58;;;8.98;;
14094;SDS011;18096;48.142;16.290;2023-03-03T02:50:32;17.10;;;10.35;;
14094;SDS011;18096;48.142;16.290;2023-03-03T02:52:57;20.03;;;10.53;;
14094;SDS011;18096;48.142;16.290;2023-03-03T02:55:23;19.80;;;10.13;;
14094;SDS011;18096;48.142;16.290;2023-03-03T02:57:48;16.63;;;10.20;;
14094;SDS011;18096;48.142;16.290;2023-03-03T03:00:14;19.85;;;9.80;;
14094;SDS011;18096;48.142;16.290;2023-03-03T03:02:40;18.52;;;10.75;;
14094;SDS011;18096;48.142;16.290;2023-03-03T03:05:06;19.77;;;9.80;;
14094;SDS011;18096;48.142;16.290;2023-03-03T03:07:33;19.37;;;9.63;;
14094;SDS011;18096;48.142;16.290;2023-03-03T03:09:58;19.50;;;10.70;;
14094;SDS011;18096;48.142;16.290;2023-03-03T03:12:24;19.60;;;11.13;;
14094;SDS011;18096;48.142;16.290;2023-03-03T03:14:50;21.92;;;11.88;;
14094;SDS011;18096;48.142;16.290;2023-03-03T03:17:15;15.90;;;9.82;;
14094;SDS011;18096;48.142;16.290;2023-03-03T03:19:41;18.97;;;10.73;;
14094;SDS011;18096;48.142;16.290;2023-03-03T03:22:06;17.77;;;10.63;;
14094;SDS011;18096;48.142;16.290;2023-03-03T03:24:32;18.70;;;11.27;;
14094;SDS011;18096;48.142;16.290;2023-03-03T03:26:58;27.85;;;11.60;;
14094;SDS011;18096;48.142;16.290;2023-03-03T03:29:23;17.10;;;11.17;;
14094;SDS011;18096;48.142;16.290;2023-03-03T03:31:49;20.37;;;11.47;;
14094;SDS011;18096;48.142;16.290;2023-03-03T03:34:15;22.30;;;11.50;;
14094;SDS011;18096;48.142;16.290;2023-03-03T03:36:40;17.40;;;10.00;;
14094;SDS011;18096;48.142;16.290;2023-03-03T03:39:07;19.15;;;10.75;;
14094;SDS011;18096;48.142;16.290;2023-03-03T03:41:33;22.00;;;12.00;;
14094;SDS011;18096;48.142;16.290;2023-03-03T03:43:58;25.92;;;12.32;;
14094;SDS011;18096;48.142;16.290;2023-03-03T03:46:24;22.05;;;11.02;;
14094;SDS011;18096;48.142;16.290;2023-03-03T03:48:50;19.30;;;11.50;;
14094;SDS011;18096;48.142;16.290;2023-03-03T03:51:15;17.60;;;10.67;;
14094;SDS011;18096;48.142;16.290;2023-03-03T03:53:41;17.67;;;11.20;;
14094;SDS011;18096;48.142;16.290;2023-03-03T03:56:06;22.90;;;11.85;;
14094;SDS011;18096;48.142;16.290;2023-03-03T03:58:32;21.45;;;11.73;;
14094;SDS011;18096;48.142;16.290;2023-03-03T04:01:02;20.73;;;12.73;;
14094;SDS011;18096;48.142;16.290;2023-03-03T04:03:29;20.05;;;11.50;;
14094;SDS011;18096;48.142;16.290;2023-03-03T04:05:54;24.87;;;13.37;;
14094;SDS011;18096;48.142;16.290;2023-03-03T04:08:20;18.88;;;10.60;;
14094;SDS011;18096;48.142;16.290;2023-03-03T04:10:45;21.50;;;12.70;;
14094;SDS011;18096;48.142;16.290;2023-03-03T04:13:11;22.83;;;12.53;;
14094;SDS011;18096;48.142;16.290;2023-03-03T04:15:37;22.63;;;12.10;;
14094;SDS011;18096;48.142;16.290;2023-03-03T04:18:02;19.58;;;11.63;;
14094;SDS011;18096;48.142;16.290;2023-03-03T04:20:28;21.10;;;12.30;;
14094;SDS011;18096;48.142;16.290;2023-03-03T04:22:54;26.50;;;13.32;;
14094;SDS011;18096;48.142;16.290;2023-03-03T04:25:20;20.35;;;12.10;;
14094;SDS011;18096;48.142;16.290;2023-03-03T04:27:46;23.17;;;12.68;;
14094;SDS011;18096;48.142;16.290;2023-03-03T04:30:13;18.57;;;11.30;;
14094;SDS011;18096;48.142;16.290;2023-03-03T04:32:40;18.10;;;12.23;;
14094;SDS011;18096;48.142;16.290;2023-03-03T04:35:06;27.95;;;14.07;;
14094;SDS011;18096;48.142;16.290;2023-03-03T04:37:32;25.50;;;12.17;;
14094;SDS011;18096;48.142;16.290;2023-03-03T04:39:58;22.60;;;13.17;;
14094;SDS011;18096;48.142;16.290;2023-03-03T04:42:23;22.20;;;12.70;;
14094;SDS011;18096;48.142;16.290;2023-03-03T04:44:51;20.80;;;13.82;;
14094;SDS011;18096;48.142;16.290;2023-03-03T04:47:17;20.10;;;12.90;;
14094;SDS011;18096;48.142;16.290;2023-03-03T04:49:43;20.00;;;13.20;;
14094;SDS011;18096;48.142;16.290;2023-03-03T04:52:08;21.25;;;12.27;;
14094;SDS011;18096;48.142;16.290;2023-03-03T04:54:34;24.48;;;12.93;;
14094;SDS011;18096;48.142;16.290;2023-03-03T04:57:00;32.67;;;12.20;;
14094;SDS011;18096;48.142;16.290;2023-03-03T04:59:26;26.33;;;13.33;;
14094;SDS011;18096;48.142;16.290;2023-03-03T05:01:51;37.50;;;14.32;;
14094;SDS011;18096;48.142;16.290;2023-03-03T05:04:17;29.63;;;15.07;;
14094;SDS011;18096;48.142;16.290;2023-03-03T05:06:43;29.17;;;14.57;;
14094;SDS011;18096;48.142;16.290;2023-03-03T05:09:08;30.80;;;14.37;;
14094;SDS011;18096;48.142;16.290;2023-03-03T05:11:34;25.20;;;13.10;;
14094;SDS011;18096;48.142;16.290;2023-03-03T05:14:00;25.42;;;15.40;;
14094;SDS011;18096;48.142;16.290;2023-03-03T05:16:27;26.02;;;15.13;;
14094;SDS011;18096;48.142;16.290;2023-03-03T05:18:53;27.63;;;14.32;;
14094;SDS011;18096;48.142;16.290;2023-03-03T05:21:18;22.30;;;14.20;;
14094;SDS011;18096;48.142;16.290;2023-03-03T05:23:44;29.08;;;14.25;;
14094;SDS011;18096;48.142;16.290;2023-03-03T05:26:10;25.55;;;14.10;;
14094;SDS011;18096;48.142;16.290;2023-03-03T05:28:35;25.30;;;15.07;;
14094;SDS011;18096;48.142;16.290;2023-03-03T05:31:01;28.03;;;15.13;;
14094;SDS011;18096;48.142;16.290;2023-03-03T05:33:27;26.30;;;15.23;;
14094;SDS011;18096;48.142;16.290;2023-03-03T05:35:53;29.85;;;14.48;;
14094;SDS011;18096;48.142;16.290;2023-03-03T05:38:20;28.97;;;15.03;;
14094;SDS011;18096;48.142;16.290;2023-03-03T05:40:46;26.00;;;14.25;;
14094;SDS011;18096;48.142;16.290;2023-03-03T05:43:12;26.15;;;15.48;;
14094;SDS011;18096;48.142;16.290;2023-03-03T05:45:38;31.60;;;14.75;;
14094;SDS011;18096;48.142;16.290;2023-03-03T05:48:04;26.67;;;15.60;;
14094;SDS011;18096;48.142;16.290;2023-03-03T05:50:29;25.92;;;15.00;;
14094;SDS011;18096;48.142;16.290;2023-03-03T05:52:56;39.08;;;15.70;;
14094;SDS011;18096;48.142;16.290;2023-03-03T05:55:22;34.10;;;16.30;;
14094;SDS011;18096;48.142;16.290;2023-03-03T05:57:48;37.00;;;15.07;;
14094;SDS011;18096;48.142;16.290;2023-03-03T06:00:14;32.75;;;16.58;;
14094;SDS011;18096;48.142;16.290;2023-03-03T06:02:41;31.37;;;16.30;;
14094;SDS011;18096;48.142;16.290;2023-03-03T06:05:07;34.25;;;17.17;;
14094;SDS011;18096;48.142;16.290;2023-03-03T06:07:33;38.55;;;17.73;;
14094;SDS011;18096;48.142;16.290;2023-03-03T06:09:59;27.17;;;16.20;;
14094;SDS011;18096;48.142;16.290;2023-03-03T06:12:25;32.50;;;17.38;;
14094;SDS011;18096;48.142;16.290;2023-03-03T06:14:50;39.13;;;18.23;;
14094;SDS011;18096;48.142;16.290;2023-03-03T06:17:16;33.17;;;18.35;;
14094;SDS011;18096;48.142;16.290;2023-03-03T06:19:42;31.50;;;15.95;;
14094;SDS011;18096;48.142;16.290;2023-03-03T06:22:08;37.00;;;18.97;;
14094;SDS011;18096;48.142;16.290;2023-03-03T06:24:33;33.63;;;18.20;;
14094;SDS011;18096;48.142;16.290;2023-03-03T06:27:00;43.27;;;20.07;;
14094;SDS011;18096;48.142;16.290;2023-03-03T06:29:26;33.85;;;19.83;;
14094;SDS011;18096;48.142;16.290;2023-03-03T06:31:53;40.53;;;21.48;;
14094;SDS011;18096;48.142;16.290;2023-03-03T06:34:19;56.80;;;21.77;;
14094;SDS011;18096;48.142;16.290;2023-03-03T06:36:45;38.23;;;21.00;;
14094;SDS011;18096;48.142;16.290;2023-03-03T06:39:10;46.50;;;21.85;;
14094;SDS011;18096;48.142;16.290;2023-03-03T06:41:36;44.45;;;21.52;;
14094;SDS011;18096;48.142;16.290;2023-03-03T06:44:02;41.38;;;22.40;;
14094;SDS011;18096;48.142;16.290;2023-03-03T06:46:28;45.03;;;21.73;;
14094;SDS011;18096;48.142;16.290;2023-03-03T06:48:54;42.35;;;21.08;;
14094;SDS011;18096;48.142;16.290;2023-03-03T06:51:23;41.70;;;22.23;;
14094;SDS011;18096;48.142;16.290;2023-03-03T06:53:55;46.80;;;22.05;;
14094;SDS011;18096;48.142;16.290;2023-03-03T06:56:23;53.03;;;23.65;;
14094;SDS011;18096;48.142;16.290;2023-03-03T06:58:52;50.45;;;23.52;;
14094;SDS011;18096;48.142;16.290;2023-03-03T07:01:22;48.03;;;24.70;;
14094;SDS011;18096;48.142;16.290;2023-03-03T07:03:48;46.90;;;23.17;;
14094;SDS011;18096;48.142;16.290;2023-03-03T07:06:24;51.50;;;24.10;;
14094;SDS011;18096;48.142;16.290;2023-03-03T07:08:52;43.53;;;23.48;;
14094;SDS011;18096;48.142;16.290;2023-03-03T07:11:21;42.80;;;22.48;;
14094;SDS011;18096;48.142;16.290;2023-03-03T07:13:51;44.30;;;24.00;;
14094;SDS011;18096;48.142;16.290;2023-03-03T07:16:19;40.03;;;22.43;;
14094;SDS011;18096;48.142;16.290;2023-03-03T07:18:51;38.17;;;21.75;;
14094;SDS011;18096;48.142;16.290;2023-03-03T07:21:20;45.42;;;23.65;;
14094;SDS011;18096;48.142;16.290;2023-03-03T07:23:54;46.88;;;23.88;;
14094;SDS011;18096;48.142;16.290;2023-03-03T07:26:25;46.55;;;23.48;;
14094;SDS011;18096;48.142;16.290;2023-03-03T07:29:12;51.45;;;22.63;;
14094;SDS011;18096;48.142;16.290;2023-03-03T07:31:41;44.70;;;23.85;;
14094;SDS011;18096;48.142;16.290;2023-03-03T07:34:34;38.30;;;23.45;;
14094;SDS011;18096;48.142;16.290;2023-03-03T07:39:52;43.80;;;22.58;;
14094;SDS011;18096;48.142;16.290;2023-03-03T07:42:20;44.08;;;22.73;;
14094;SDS011;18096;48.142;16.290;2023-03-03T07:50:49;42.20;;;22.33;;
14094;SDS011;18096;48.142;16.290;2023-03-03T07:53:32;46.03;;;23.60;;
14094;SDS011;18096;48.142;16.290;2023-03-03T07:56:00;46.47;;;22.87;;
14094;SDS011;18096;48.142;16.290;2023-03-03T07:58:47;45.37;;;22.60;;
14094;SDS011;18096;48.142;16.290;2023-03-03T08:01:30;42.17;;;22.50;;
14094;SDS011;18096;48.142;16.290;2023-03-03T08:03:58;42.53;;;23.42;;
14094;SDS011;18096;48.142;16.290;2023-03-03T08:11:33;45.45;;;22.40;;
14094;SDS011;18096;48.142;16.290;2023-03-03T08:13:59;48.78;;;22.35;;
14094;SDS011;18096;48.142;16.290;2023-03-03T08:16:47;42.00;;;20.23;;
14094;SDS011;18096;48.142;16.290;2023-03-03T08:19:12;39.40;;;20.48;;
14094;SDS011;18096;48.142;16.290;2023-03-03T08:21:41;41.50;;;19.50;;
14094;SDS011;18096;48.142;16.290;2023-03-03T08:24:06;41.15;;;21.02;;
14094;SDS011;18096;48.142;16.290;2023-03-03T08:26:32;40.33;;;21.93;;
14094;SDS011;18096;48.142;16.290;2023-03-03T08:28:58;43.60;;;21.88;;
14094;SDS011;18096;48.142;16.290;2023-03-03T08:31:25;42.42;;;21.63;;
14094;SDS011;18096;48.142;16.290;2023-03-03T08:33:51;42.90;;;22.27;;
14094;SDS011;18096;48.142;16.290;2023-03-03T08:36:17;39.67;;;20.67;;
14094;SDS011;18096;48.142;16.290;2023-03-03T08:38:43;42.70;;;21.93;;
14094;SDS011;18096;48.142;16.290;2023-03-03T08:41:09;42.87;;;20.10;;
14094;SDS011;18096;48.142;16.290;2023-03-03T08:43:35;38.35;;;20.40;;
14094;SDS011;18096;48.142;16.290;2023-03-03T08:46:02;34.27;;;20.17;;
14094;SDS011;18096;48.142;16.290;2023-03-03T08:48:29;38.03;;;19.60;;
14094;SDS011;18096;48.142;16.290;2023-03-03T08:50:55;47.33;;;21.30;;
14094;SDS011;18096;48.142;16.290;2023-03-03T08:53:22;38.50;;;20.17;;
14094;SDS011;18096;48.142;16.290;2023-03-03T08:55:48;32.22;;;18.98;;
14094;SDS011;18096;48.142;16.290;2023-03-03T08:58:14;46.03;;;19.57;;
14094;SDS011;18096;48.142;16.290;2023-03-03T09:00:40;46.60;;;19.87;;
14094;SDS011;18096;48.142;16.290;2023-03-03T09:03:06;41.30;;;19.93;;
14094;SDS011;18096;48.142;16.290;2023-03-03T09:05:33;37.58;;;20.00;;
14094;SDS011;18096;48.142;16.290;2023-03-03T09:07:59;41.83;;;20.83;;
14094;SDS011;18096;48.142;16.290;2023-03-03T09:10:26;40.65;;;21.33;;
14094;SDS011;18096;48.142;16.290;2023-03-03T09:12:53;40.42;;;19.88;;
14094;SDS011;18096;48.142;16.290;2023-03-03T09:15:24;34.00;;;19.03;;
14094;SDS011;18096;48.142;16.290;2023-03-03T09:17:52;37.70;;;19.08;;
14094;SDS011;18096;48.142;16.290;2023-03-03T09:25:58;32.88;;;18.50;;
14094;SDS011;18096;48.142;16.290;2023-03-03T09:28:51;38.08;;;18.55;;
14094;SDS011;18096;48.142;16.290;2023-03-03T09:31:25;30.02;;;17.90;;
14094;SDS011;18096;48.142;16.290;2023-03-03T09:33:56;36.93;;;20.17;;
14094;SDS011;18096;48.142;16.290;2023-03-03T09:36:34;38.85;;;19.00;;
14094;SDS011;18096;48.142;16.290;2023-03-03T09:39:11;35.25;;;20.10;;
14094;SDS011;18096;48.142;16.290;2023-03-03T09:47:14;35.40;;;19.98;;
14094;SDS011;18096;48.142;16.290;2023-03-03T10:00:03;41.22;;;19.92;;
14094;SDS011;18096;48.142;16.290;2023-03-03T10:02:42;42.35;;;20.58;;
14094;SDS011;18096;48.142;16.290;2023-03-03T10:05:54;32.80;;;17.75;;
14094;SDS011;18096;48.142;16.290;2023-03-03T10:13:36;35.42;;;18.88;;
14094;SDS011;18096;48.142;16.290;2023-03-03T10:16:15;50.03;;;20.80;;
14094;SDS011;18096;48.142;16.290;2023-03-03T10:45:34;34.50;;;17.37;;
14094;SDS011;18096;48.142;16.290;2023-03-03T10:55:56;35.30;;;17.92;;
14094;SDS011;18096;48.142;16.290;2023-03-03T11:03:41;30.95;;;16.13;;
14094;SDS011;18096;48.142;16.290;2023-03-03T11:15:20;31.67;;;15.27;;
14094;SDS011;18096;48.142;16.290;2023-03-03T11:17:30;24.97;;;13.80;;
14094;SDS011;18096;48.142;16.290;2023-03-03T11:25:54;26.90;;;14.07;;
14094;SDS011;18096;48.142;16.290;2023-03-03T11:33:53;28.60;;;14.35;;
14094;SDS011;18096;48.142;16.290;2023-03-03T11:36:30;22.55;;;13.38;;
14094;SDS011;18096;48.142;16.290;2023-03-03T11:39:02;24.88;;;15.07;;
14094;SDS011;18096;48.142;16.290;2023-03-03T11:47:36;27.27;;;15.82;;
14094;SDS011;18096;48.142;16.290;2023-03-03T11:50:02;27.98;;;14.65;;
14094;SDS011;18096;48.142;16.290;2023-03-03T11:55:26;24.42;;;14.75;;
14094;SDS011;18096;48.142;16.290;2023-03-03T12:03:43;31.48;;;15.23;;
14094;SDS011;18096;48.142;16.290;2023-03-03T12:06:16;27.80;;;14.35;;
14094;SDS011;18096;48.142;16.290;2023-03-03T12:08:59;38.35;;;15.23;;
14094;SDS011;18096;48.142;16.290;2023-03-03T12:11:46;25.17;;;12.80;;
14094;SDS011;18096;48.142;16.290;2023-03-03T12:20:02;24.33;;;14.68;;
14094;SDS011;18096;48.142;16.290;2023-03-03T12:33:38;29.77;;;15.93;;
14094;SDS011;18096;48.142;16.290;2023-03-03T12:42:05;30.52;;;15.55;;
14094;SDS011;18096;48.142;16.290;2023-03-03T12:47:50;29.45;;;14.98;;
14094;SDS011;18096;48.142;16.290;2023-03-03T12:56:17;18.13;;;10.95;;
14094;SDS011;18096;48.142;16.290;2023-03-03T13:09:42;25.87;;;11.80;;
14094;SDS011;18096;48.142;16.290;2023-03-03T13:15:27;30.33;;;14.82;;
14094;SDS011;18096;48.142;16.290;2023-03-03T13:20:48;18.42;;;11.93;;
14094;SDS011;18096;48.142;16.290;2023-03-03T13:23:46;25.60;;;14.40;;
14094;SDS011;18096;48.142;16.290;2023-03-03T13:26:46;23.30;;;13.30;;
14094;SDS011;18096;48.142;16.290;2023-03-03T13:31:38;21.50;;;13.43;;
14094;SDS011;18096;48.142;16.290;2023-03-03T13:34:12;26.48;;;14.05;;
14094;SDS011;18096;48.142;16.290;2023-03-03T13:36:50;29.05;;;14.00;;
14094;SDS011;18096;48.142;16.290;2023-03-03T13:39:23;25.97;;;13.77;;
14094;SDS011;18096;48.142;16.290;2023-03-03T13:52:32;23.83;;;12.60;;
14094;SDS011;18096;48.142;16.290;2023-03-03T14:00:43;31.17;;;13.45;;
14094;SDS011;18096;48.142;16.290;2023-03-03T14:06:16;31.35;;;14.15;;
14094;SDS011;18096;48.142;16.290;2023-03-03T14:11:37;24.80;;;12.82;;
14094;SDS011;18096;48.142;16.290;2023-03-03T14:17:02;27.20;;;13.47;;
14094;SDS011;18096;48.142;16.290;2023-03-03T14:19:56;26.73;;;14.40;;
14094;SDS011;18096;48.142;16.290;2023-03-03T14:22:52;26.88;;;14.48;;
14094;SDS011;18096;48.142;16.290;2023-03-03T14:25:22;23.37;;;13.23;;
14094;SDS011;18096;48.142;16.290;2023-03-03T14:28:04;23.94;;;13.21;;
14094;SDS011;18096;48.142;16.290;2023-03-03T14:30:41;18.43;;;12.07;;
14094;SDS011;18096;48.142;16.290;2023-03-03T14:35:47;30.95;;;13.68;;
14094;SDS011;18096;48.142;16.290;2023-03-03T14:38:40;22.30;;;12.95;;
14094;SDS011;18096;48.142;16.290;2023-03-03T14:41:12;22.13;;;14.02;;
14094;SDS011;18096;48.142;16.290;2023-03-03T14:43:41;23.80;;;13.88;;
14094;SDS011;18096;48.142;16.290;2023-03-03T14:49:05;22.27;;;13.05;;
14094;SDS011;18096;48.142;16.290;2023-03-03T14:51:42;28.35;;;13.30;;
14094;SDS011;18096;48.142;16.290;2023-03-03T14:57:00;24.27;;;13.50;;
14094;SDS011;18096;48.142;16.290;2023-03-03T14:59:54;30.02;;;13.90;;
14094;SDS011;18096;48.142;16.290;2023-03-03T15:10:39;28.70;;;13.20;;
14094;SDS011;18096;48.142;16.290;2023-03-03T15:13:53;28.47;;;13.97;;
14094;SDS011;18096;48.142;16.290;2023-03-03T15:16:20;31.27;;;13.80;;
14094;SDS011;18096;48.142;16.290;2023-03-03T15:21:32;23.33;;;12.80;;
14094;SDS011;18096;48.142;16.290;2023-03-03T15:24:09;20.50;;;11.67;;
14094;SDS011;18096;48.142;16.290;2023-03-03T15:26:58;20.75;;;11.82;;
14094;SDS011;18096;48.142;16.290;2023-03-03T15:29:35;22.33;;;11.43;;
14094;SDS011;18096;48.142;16.290;2023-03-03T15:53:51;24.15;;;12.32;;
14094;SDS011;18096;48.142;16.290;2023-03-03T15:59:24;24.27;;;12.55;;
14094;SDS011;18096;48.142;16.290;2023-03-03T16:16:32;15.00;;;10.93;;
14094;SDS011;18096;48.142;16.290;2023-03-03T16:32:12;15.90;;;11.07;;
14094;SDS011;18096;48.142;16.290;2023-03-03T16:34:54;16.05;;;10.15;;
14094;SDS011;18096;48.142;16.290;2023-03-03T16:42:28;18.83;;;10.20;;
14094;SDS011;18096;48.142;16.290;2023-03-03T16:50:43;19.80;;;11.30;;
14094;SDS011;18096;48.142;16.290;2023-03-03T16:53:42;24.88;;;11.75;;
14094;SDS011;18096;48.142;16.290;2023-03-03T17:04:47;19.63;;;10.18;;
14094;SDS011;18096;48.142;16.290;2023-03-03T17:20:46;23.27;;;9.68;;
14094;SDS011;18096;48.142;16.290;2023-03-03T17:26:11;18.50;;;10.20;;
14094;SDS011;18096;48.142;16.290;2023-03-03T17:28:49;16.90;;;9.98;;
14094;SDS011;18096;48.142;16.290;2023-03-03T17:34:19;19.58;;;10.50;;
14094;SDS011;18096;48.142;16.290;2023-03-03T17:40:30;16.10;;;11.10;;
14094;SDS011;18096;48.142;16.290;2023-03-03T17:43:04;16.70;;;10.57;;
14094;SDS011;18096;48.142;16.290;2023-03-03T17:45:42;22.23;;;11.18;;
14094;SDS011;18096;48.142;16.290;2023-03-03T17:56:15;20.17;;;10.85;;
14094;SDS011;18096;48.142;16.290;2023-03-03T18:04:38;30.40;;;11.65;;
14094;SDS011;18096;48.142;16.290;2023-03-03T18:21:55;19.65;;;10.38;;
14094;SDS011;18096;48.142;16.290;2023-03-03T18:40:54;20.23;;;11.45;;
14094;SDS011;18096;48.142;16.290;2023-03-03T18:46:08;21.67;;;10.88;;
14094;SDS011;18096;48.142;16.290;2023-03-03T18:59:40;19.00;;;10.33;;
14094;SDS011;18096;48.142;16.290;2023-03-03T19:04:50;18.30;;;10.80;;
14094;SDS011;18096;48.142;16.290;2023-03-03T19:07:26;22.63;;;11.75;;
14094;SDS011;18096;48.142;16.290;2023-03-03T19:12:58;21.55;;;11.68;;
14094;SDS011;18096;48.142;16.290;2023-03-03T19:20:43;16.55;;;11.10;;
14094;SDS011;18096;48.142;16.290;2023-03-03T19:23:13;31.48;;;12.70;;
14094;SDS011;18096;48.142;16.290;2023-03-03T19:25:44;27.02;;;12.35;;
14094;SDS011;18096;48.142;16.290;2023-03-03T19:28:41;22.73;;;11.88;;
14094;SDS011;18096;48.142;16.290;2023-03-03T20:01:17;25.23;;;13.80;;
14094;SDS011;18096;48.142;16.290;2023-03-03T20:03:54;24.42;;;13.50;;
14094;SDS011;18096;48.142;16.290;2023-03-03T20:06:29;22.38;;;14.23;;
14094;SDS011;18096;48.142;16.290;2023-03-03T20:09:07;25.60;;;13.38;;
14094;SDS011;18096;48.142;16.290;2023-03-03T20:11:55;32.97;;;13.63;;
14094;SDS011;18096;48.142;16.290;2023-03-03T20:20:26;29.30;;;14.30;;
14094;SDS011;18096;48.142;16.290;2023-03-03T20:23:27;23.48;;;12.90;;
14094;SDS011;18096;48.142;16.290;2023-03-03T20:25:59;24.80;;;13.63;;
14094;SDS011;18096;48.142;16.290;2023-03-03T20:34:03;46.70;;;15.18;;
14094;SDS011;18096;48.142;16.290;2023-03-03T20:42:11;30.55;;;15.27;;
14094;SDS011;18096;48.142;16.290;2023-03-03T20:44:59;21.75;;;13.35;;
14094;SDS011;18096;48.142;16.290;2023-03-03T21:03:53;27.52;;;14.98;;
14094;SDS011;18096;48.142;16.290;2023-03-03T21:06:41;32.63;;;14.45;;
14094;SDS011;18096;48.142;16.290;2023-03-03T21:09:16;24.77;;;12.68;;
14094;SDS011;18096;48.142;16.290;2023-03-03T21:11:50;35.47;;;15.65;;
14094;SDS011;18096;48.142;16.290;2023-03-03T21:14:21;36.45;;;16.13;;
14094;SDS011;18096;48.142;16.290;2023-03-03T21:16:52;32.23;;;16.70;;
14094;SDS011;18096;48.142;16.290;2023-03-03T21:19:33;34.55;;;16.05;;
14094;SDS011;18096;48.142;16.290;2023-03-03T21:22:03;29.30;;;15.55;;
14094;SDS011;18096;48.142;16.290;2023-03-03T21:24:48;39.30;;;16.80;;
14094;SDS011;18096;48.142;16.290;2023-03-03T21:27:28;33.92;;;16.05;;
14094;SDS011;18096;48.142;16.290;2023-03-03T21:30:06;35.78;;;16.75;;
14094;SDS011;18096;48.142;16.290;2023-03-03T21:35:11;37.20;;;17.25;;
14094;SDS011;18096;48.142;16.290;2023-03-03T21:37:46;33.28;;;17.55;;
14094;SDS011;18096;48.142;16.290;2023-03-03T21:40:21;33.25;;;18.17;;
14094;SDS011;18096;48.142;16.290;2023-03-03T21:42:50;37.85;;;20.98;;
14094;SDS011;18096;48.142;16.290;2023-03-03T21:45:18;36.35;;;19.20;;
14094;SDS011;18096;48.142;16.290;2023-03-03T21:47:47;36.15;;;18.52;;
14094;SDS011;18096;48.142;16.290;2023-03-03T21:50:14;44.08;;;18.13;;
14094;SDS011;18096;48.142;16.290;2023-03-03T21:52:41;34.95;;;17.63;;
14094;SDS011;18096;48.142;16.290;2023-03-03T21:55:07;33.80;;;17.67;;
14094;SDS011;18096;48.142;16.290;2023-03-03T21:57:33;30.88;;;17.92;;
14094;SDS011;18096;48.142;16.290;2023-03-03T21:59:59;29.50;;;16.35;;
14094;SDS011;18096;48.142;16.290;2023-03-03T22:02:25;32.45;;;18.23;;
14094;SDS011;18096;48.142;16.290;2023-03-03T22:04:51;44.85;;;19.52;;
14094;SDS011;18096;48.142;16.290;2023-03-03T22:07:17;39.70;;;18.70;;
14094;SDS011;18096;48.142;16.290;2023-03-03T22:09:42;37.10;;;19.55;;